Tiempo atmosférico en la estación meteorológica de Es Mercadal, Illes Balears (77 m.)



Fecha
DESCASC
Temp. máxima en grados centígrados (hora)
DESCASC
Temp. mínima en grados centígrados (hora)
DESCASC
Temp. media en grados centígrados
DESCASC
Racha de viento máxima en m/sg (hora)
DESCASC
Velocidad máxima media en intervalos de 10 minutos(hora)
DESCASC
Precipitaciones diarias en mm
DESCASC
Precipitaciones de 00:00 a 06:00 en mm
DESCASC
Precipitaciones de 06:00 a 12:00 en mm
DESCASC
Precipitaciones de 12:00 a 18:00 en mm
DESCASC
Precipitaciones de 18:00 a 24:00 en mm
DESCASC
13-10-2019 26.5 (12:50) 20 (07:50) 23.3 10.83 (13:40) 6.39 (15:10) 0 0 0 0 0
12-10-2019 25.6 (15:20) 18.7 (07:10) 22.2 8.89 (14:10) 5.56 (02:00) 0 0 0 0 0
11-10-2019 24.6 (15:20) 16 (03:00) 20.3 8.61 (14:10) 5.28 (14:10) 0 0 0 0 0
10-10-2019 22 (15:00) 17.4 (00:00) 19.7 9.72 (12:40) 6.11 (12:40) 0 0 0 0 0
09-10-2019 25.3 (14:30) 18.1 (00:00) 21.7 8.06 (10:10) 5.28 (10:10) 0 0 0 0 0
08-10-2019 25.6 (16:00) 17.8 (00:00) 21.7 8.61 (16:00) 5.28 (02:50) 0 0 0 0 0
07-10-2019 20.6 (15:30) 16.1 (00:00) 18.4 21.39 (14:20) 14.17 (14:00) 7.6 6.8 0.8 0 0
06-10-2019 24.3 (16:10) 16.6 (00:00) 20.4 7.78 (13:00) 4.72 (12:50) 0 0 0 0 0
05-10-2019 23.5 (14:20) 17 (00:00) 20.3 8.89 (11:20) 6.39 (10:40) 0 0 0 0 0
04-10-2019 24.3 (14:10) 14.7 (00:00) 19.5 10 (13:30) 6.39 (15:40) 0 0 0 0 0
03-10-2019 22.1 (13:30) 16 (00:00) 19.1 14.17 (01:20) 8.89 (01:50) 0 0 0 0 0
02-10-2019 23.1 (14:30) 20.7 (00:00) 21.9 14.72 (04:50) 8.61 (05:50) 0 0 0 0 0
01-10-2019 27.3 (15:30) 19.5 (00:00) 23.4 8.89 (14:00) 5.56 (12:00) 0 0 0 0 0
30-09-2019 27.8 (14:40) 19.4 (00:00) 23.6 7.22 (00:10) 5 (00:10) 0 0 0 0 0
29-09-2019 27.4 (15:50) 20.2 (00:00) 23.8 10.28 (18:40) 6.67 (18:40) 0 0 0 0 0
28-09-2019 26.4 (12:10) 19.5 (00:00) 22.9 6.67 (00:50) 5.28 (00:50) 0 0 0 0 0
27-09-2019 27.2 (14:00) 19.5 (00:00) 23.4 8.89 (17:00) 5.83 (17:00) 0 0 0 0 0
26-09-2019 27.4 (13:10) 17.1 (00:00) 22.3 11.11 (13:20) 4.17 (18:30) 0 0 0 0 0
25-09-2019 26.2 (12:20) 18.2 (00:00) 22.2 11.11 (14:00) 7.22 (13:50) 0 0 0 0 0
24-09-2019 27.1 (12:20) 19.1 (00:00) 23.1 10.28 (15:40) 7.22 (16:10) 0 0 0 0 0
23-09-2019 25.1 (14:20) 19.5 (00:00) 22.3 8.89 (09:20) 5.83 (09:20) 0 0 0 0 0
22-09-2019 29.3 (12:30) 22.1 (00:00) 25.7 11.11 (19:40) 7.5 (20:00) 0 0 0 0 0
21-09-2019 29.2 (16:20) 21.9 (00:00) 25.6 16.94 (11:40) 10.56 (11:50) 0.2 0 0.2 0 0
20-09-2019 26.4 (13:00) 19.1 (00:00) 22.8 8.61 (15:40) 5.56 (17:20) 0 0 0 0 0
19-09-2019 27.2 (14:50) 19.8 (00:00) 23.5 7.22 (16:00) 4.72 (16:00) 0 0 0 0 0
18-09-2019 27.1 (12:20) 20.9 (00:00) 24 6.39 (15:30) 3.89 (16:00) 0 0 0 0 0
17-09-2019 28.6 (14:20) 22.2 (00:00) 25.4 7.5 (14:40) 4.44 (16:50) 0 0 0 0 0
16-09-2019 28.3 (15:30) 21.6 (00:00) 24.9 12.78 (11:30) 7.78 (11:40) 0 0 0 0 0
15-09-2019 29.2 (14:20) 22.9 (00:00) 26.1 13.89 (05:30) 10.28 (05:30) 0 0 0 0 0

Gráficas

Temp. máximas Temp. mínimas Temp. medias Precipitaciones Rachas de viento máximas Velocidades máximas media en intervalos de 10 minutos

Datos horarios

Fecha y hora oficial Temperatura (ºC) Velocidad del viento (km/h) Dirección del viento Racha (km/h) Dirección de racha Precipitación (mm) Presión (hPa) Tendencia (hPa) Humedad (%)
2019-10-14 23:00:00 21.4 14 Sudeste 42 Este 0.8 -- -- 87
2019-10-14 22:00:00 21.8 6 Oeste 17 Noroeste 0 -- -- 87
2019-10-14 21:00:00 22.3 5 Oeste 17 Sudoeste 0 -- -- 90
2019-10-14 20:00:00 22.7 15 Sudoeste 27 Sur 0.2 -- -- 87
2019-10-14 19:00:00 23.6 13 Sur 30 Sur 0 -- -- 80
2019-10-14 18:00:00 24 17 Sudeste 37 Sur 0 -- -- 78
2019-10-14 17:00:00 24.9 26 Sur 40 Sudeste 0 -- -- 69
2019-10-14 16:00:00 27.6 24 Sur 39 Sudeste 0 -- -- 50
2019-10-14 15:00:00 27.9 27 Sudeste 36 Sur 0 -- -- 45
2019-10-14 14:00:00 29.1 19 Sudeste 37 Sudeste 0 -- -- 40
2019-10-14 13:00:00 28 22 Sudeste 36 Sudeste 0 -- -- 46
2019-10-14 12:00:00 27.7 15 Sudeste 31 Sudeste 0 -- -- 53
2019-10-14 11:00:00 25.2 17 Sudeste 24 Sudeste 0 -- -- 75
2019-10-14 10:00:00 22.2 15 Sudeste 23 Sudeste 0 -- -- 94
2019-10-14 09:00:00 21 10 Sudeste 16 Sudeste 0 -- -- 95
2019-10-14 08:00:00 20.7 12 Sur 16 Sudeste 0 -- -- 95
2019-10-14 07:00:00 20.9 5 Sur 10 Sudeste 0 -- -- 95
2019-10-14 06:00:00 21 5 Sur 16 Sur 0 -- -- 94
2019-10-14 05:00:00 21.4 8 Sur 17 Sur 0 -- -- 94
2019-10-14 04:00:00 21.2 10 Sur 21 Sur 0 -- -- 94
2019-10-14 03:00:00 21.3 12 Sur 23 Sudeste 0 -- -- 94
2019-10-14 02:00:00 21.3 16 Sur 22 Sur 0 -- -- 93
2019-10-14 01:00:00 21 7 Sur 17 Sudeste 0 -- -- 92
2019-10-14 00:00:00 21.1 4 Sur 20 Sudeste -- -- -- 92
2019-10-13 23:00:00 21.3 8 Sudeste 15 Sudeste 0 -- -- 91
2019-10-13 22:00:00 21.4 8 Sudeste 18 Sudeste 0 -- -- 89
2019-10-13 21:00:00 21.4 6 Sudeste 16 Este 0 -- -- 88
2019-10-13 20:00:00 21.8 10 Este 24 Sudeste 0 -- -- 85
2019-10-13 19:00:00 22.5 13 Sudeste 26 Sudeste 0 -- -- 79
2019-10-13 18:00:00 24.4 14 Sudeste 26 Sudeste 0 -- -- 70
2019-10-13 17:00:00 25.1 16 Este 29 Sudeste 0 -- -- 65
2019-10-13 16:00:00 25.6 17 Sudeste 33 Este 0 -- -- 63
2019-10-13 15:00:00 26 16 Sudeste 37 Este 0 -- -- 64
2019-10-13 14:00:00 26.1 22 Este 39 Este 0 -- -- 63
2019-10-13 13:00:00 25.5 17 Sudeste 34 Este 0 -- -- 66
2019-10-13 12:00:00 24.6 20 Sudeste 36 Este 0 -- -- 68
2019-10-13 11:00:00 23.3 18 Este 31 Este 0 -- -- 74
2019-10-13 10:00:00 22 14 Este 27 Este 0 -- -- 82
2019-10-13 09:00:00 20.5 10 Sudeste 18 Sudeste 0 -- -- 87
2019-10-13 08:00:00 20 5 Sudeste 12 Sur 0 -- -- 88
2019-10-13 07:00:00 20.2 6 Sudeste 14 Sudeste 0 -- -- 88
2019-10-13 06:00:00 20.1 6 Sudeste 19 Sudeste 0 -- -- 88
2019-10-13 05:00:00 20.2 11 Sudeste 19 Sudeste 0 -- -- 88
2019-10-13 04:00:00 20.4 10 Sur 21 Sur 0 -- -- 88
2019-10-13 03:00:00 20.2 13 Sur 26 Sur 0 -- -- 88
2019-10-13 02:00:00 20.2 9 Sur 28 Sur 0 -- -- 88
2019-10-13 01:00:00 20.3 16 Sudeste 27 Sur 0 -- -- 87
2019-10-13 00:00:00 20.2 13 Sudeste 23 Sudeste 0 -- -- 86
2019-10-12 23:00:00 20.2 7 Sudeste 17 Sudeste 0 -- -- 86
2019-10-12 22:00:00 20.3 5 Sudeste 15 Sudeste 0 -- -- 84
2019-10-12 21:00:00 20.5 4 Sudeste 14 Sudeste 0 -- -- 82
2019-10-12 20:00:00 21 8 Sur 23 Sudeste 0 -- -- 80
2019-10-12 19:00:00 21.7 15 Sudeste 26 Sudeste 0 -- -- 75
2019-10-12 18:00:00 23.1 16 Sudeste 29 Sudeste 0 -- -- 68
2019-10-12 17:00:00 24.7 15 Sudeste 30 Este 0 -- -- 62
2019-10-12 16:00:00 25.5 15 Sudeste 29 Sudeste 0 -- -- 59
2019-10-12 15:00:00 24.9 16 Sudeste 32 Sudeste 0 -- -- 57
2019-10-12 14:00:00 25 15 Sudeste 30 Este 0 -- -- 57
2019-10-12 13:00:00 23.9 15 Sudeste 29 Este 0 -- -- 61
2019-10-12 12:00:00 23.4 17 Sudeste 26 Sudeste 0 -- -- 64
2019-10-12 11:00:00 21.7 14 Sudeste 24 Este 0 -- -- 70
2019-10-12 10:00:00 21.5 10 Sudeste 20 Sudeste 0 -- -- 73
2019-10-12 09:00:00 19.8 12 Sudeste 19 Sur 0 -- -- 78
2019-10-12 08:00:00 18.7 4 Sur 12 Este 0 -- -- 80
2019-10-12 07:00:00 18.8 3 Sudeste 19 Sur 0 -- -- 78
2019-10-12 06:00:00 18.9 10 Sudeste 25 Sudeste 0 -- -- 78
2019-10-12 05:00:00 19 15 Sudeste 26 Sudeste 0 -- -- 80
2019-10-12 04:00:00 19.1 17 Sudeste 29 Sudeste 0 -- -- 80
2019-10-12 03:00:00 19.2 18 Sudeste 28 Sudeste 0 -- -- 80
2019-10-12 02:00:00 19.5 20 Sudeste 26 Sudeste 0 -- -- 80
2019-10-12 01:00:00 19.5 17 Sudeste 24 Sudeste 0 -- -- 80
2019-10-12 00:00:00 19.4 14 Sudeste 23 Sur 0 -- -- 81
2019-10-11 23:00:00 19.6 16 Sudeste 22 Sudeste 0 -- -- 80
2019-10-11 22:00:00 19.8 14 Sur 21 Sudeste 0 -- -- 80
2019-10-11 21:00:00 20 13 Sur 19 Sur 0 -- -- 80
2019-10-11 20:00:00 20.7 14 Sur 22 Sur 0 -- -- 78
2019-10-11 19:00:00 21.6 14 Sur 25 Sudeste 0 -- -- 72
2019-10-11 18:00:00 23 17 Sur 28 Sur 0 -- -- 67
2019-10-11 17:00:00 23.5 19 Sur 28 Sudoeste 0 -- -- 65
2019-10-11 16:00:00 24.3 17 Sudoeste 28 Sur 0 -- -- 62
2019-10-11 15:00:00 24.1 16 Sur 31 Sudoeste 0 -- -- 62
2019-10-11 14:00:00 24.3 18 Sudoeste 30 Sudoeste 0 -- -- 58
2019-10-11 13:00:00 24.1 18 Sudoeste 28 Sudoeste 0 -- -- 60
2019-10-11 12:00:00 24 15 Sur 26 Sur 0 -- -- 60
2019-10-11 11:00:00 22.7 15 Sur 23 Sur 0 -- -- 64
2019-10-11 10:00:00 21.8 14 Sudeste 23 Sudeste 0 -- -- 64
2019-10-11 09:00:00 19.5 9 Sur 12 Sudeste 0 -- -- 71
2019-10-11 08:00:00 17.7 4 Sur 11 Sur 0 -- -- 75
2019-10-11 07:00:00 18 9 Sudeste 14 Sudeste 0 -- -- 73
2019-10-11 06:00:00 17 3 Sur 5 Sur 0 -- -- 76
2019-10-11 05:00:00 16.3 3 Sur 5 Sudeste 0 -- -- 76
2019-10-11 04:00:00 16.8 6 Sur 8 Sur 0 -- -- 73
2019-10-11 03:00:00 16 3 Oeste 6 Sur 0 -- -- 73
2019-10-11 02:00:00 17.2 2 Sur 6 Sudoeste 0 -- -- 70
2019-10-11 01:00:00 17.7 3 Sudoeste 5 Sudeste 0 -- -- 69
2019-10-11 00:00:00 18.3 3 Oeste 6 Sur 0 -- -- 68
2019-10-10 23:00:00 19.1 2 Sudoeste 5 Sur 0 -- -- 65
2019-10-10 22:00:00 19 0 Calma 4 Sudeste 0 -- -- 65
2019-10-10 21:00:00 19.2 4 Sudeste 9 Norte 0 -- -- 63
2019-10-10 20:00:00 19.5 6 Nordeste 14 Nordeste 0 -- -- 61
2019-10-10 19:00:00 19.9 10 Nordeste 20 Nordeste 0 -- -- 61
2019-10-10 18:00:00 20.3 12 Nordeste 24 Nordeste 0 -- -- 61
2019-10-10 17:00:00 21.1 13 Nordeste 27 Nordeste 0 -- -- 58
2019-10-10 16:00:00 21.5 15 Nordeste 31 Nordeste 0 -- -- 58
2019-10-10 15:00:00 22 17 Nordeste 32 Nordeste 0 -- -- 55
2019-10-10 14:00:00 21.8 18 Norte 34 Nordeste 0 -- -- 58
2019-10-10 13:00:00 21.7 19 Nordeste 35 Nordeste 0 -- -- 58
2019-10-10 12:00:00 21.4 22 Nordeste 32 Nordeste 0 -- -- 58
2019-10-10 11:00:00 21.7 17 Nordeste 30 Este 0 -- -- 55
2019-10-10 10:00:00 20.6 18 Nordeste 27 Nordeste 0 -- -- 57
2019-10-10 09:00:00 19.2 3 Nordeste 8 Este 0 -- -- 76
2019-10-10 08:00:00 17.4 3 Norte 8 Nordeste 0 -- -- 80
2019-10-10 07:00:00 17.6 5 Nordeste 12 Nordeste 0 -- -- 78
2019-10-10 06:00:00 17.8 4 Nordeste 9 Nordeste 0 -- -- 82
2019-10-10 05:00:00 17.8 3 Nordeste 5 Nordeste 0 -- -- 85
2019-10-10 04:00:00 18.2 3 Norte 8 Nordeste 0 -- -- 83
2019-10-10 03:00:00 19.1 7 Nordeste 16 Nordeste 0 -- -- 81
2019-10-10 02:00:00 19.9 12 Nordeste 19 Nordeste 0 -- -- 80
2019-10-10 01:00:00 19.8 13 Nordeste 19 Nordeste 0 -- -- 83
2019-10-10 00:00:00 19.1 5 Nordeste 14 Nordeste 0 -- -- 82
2019-10-09 23:00:00 18.2 0 Calma 3 Oeste 0 -- -- 77
2019-10-09 22:00:00 19.2 0 Calma 6 Este 0 -- -- 72
2019-10-09 21:00:00 19.9 5 Sudeste 13 Este 0 -- -- 70
2019-10-09 20:00:00 20.7 9 Este 21 Este 0 -- -- 67
2019-10-09 19:00:00 22.2 8 Norte 18 Norte 0 -- -- 62
2019-10-09 18:00:00 23.6 11 Norte 20 Noroeste 0 -- -- 56
2019-10-09 17:00:00 23.7 12 Norte 19 Sudoeste 0 -- -- 59
2019-10-09 16:00:00 24.7 14 Sudoeste 25 Sudoeste 0 -- -- 46
2019-10-09 15:00:00 24.7 13 Sudoeste 23 Sur 0 -- -- 50
2019-10-09 14:00:00 25.2 13 Sudoeste 23 Sudoeste 0 -- -- 50
2019-10-09 13:00:00 24.2 13 Sur 23 Sudoeste 0 -- -- 58
2019-10-09 12:00:00 23.7 14 Sur 28 Sur 0 -- -- 59
2019-10-09 11:00:00 22.8 16 Sudoeste 29 Sur 0 -- -- 62
2019-10-09 10:00:00 22.2 17 Sur 26 Sur 0 -- -- 67
2019-10-09 09:00:00 20.6 7 Sur 13 Sur 0 -- -- 75
2019-10-09 08:00:00 18.8 10 Sur 13 Sur 0 -- -- 80
2019-10-09 07:00:00 18.7 8 Sur 12 Sur 0 -- -- 81
2019-10-09 06:00:00 19.1 8 Sudoeste 11 Sur 0 -- -- 79
2019-10-09 05:00:00 19.1 8 Sudoeste 11 Sudoeste 0 -- -- 79
2019-10-09 04:00:00 19 7 Sur 18 Sudoeste 0 -- -- 77
2019-10-09 03:00:00 19.2 12 Sudoeste 18 Sur 0 -- -- 74
2019-10-09 02:00:00 19.2 12 Sudoeste 15 Sur 0 -- -- 72
2019-10-09 01:00:00 19.3 10 Sudoeste 18 Sudoeste 0 -- -- 71
2019-10-09 00:00:00 19 12 Sur 15 Sur 0 -- -- 73
2019-10-08 23:00:00 19 10 Sur 14 Sur 0 -- -- 72
2019-10-08 22:00:00 19.5 9 Sur 13 Sur 0 -- -- 70
2019-10-08 21:00:00 19.4 9 Sur 12 Sudoeste 0 -- -- 70
2019-10-08 20:00:00 19.9 5 Sudoeste 16 Sudoeste 0 -- -- 66
2019-10-08 19:00:00 21.3 12 Sudoeste 21 Sur 0 -- -- 61
2019-10-08 18:00:00 23.3 14 Sudoeste 25 Sudoeste 0 -- -- 55
2019-10-08 17:00:00 24.4 14 Oeste 26 Oeste 0 -- -- 45
2019-10-08 16:00:00 25.6 9 Noroeste 31 Sudoeste 0 -- -- 42
2019-10-08 15:00:00 22.8 13 Norte 24 Norte 0 -- -- 54
2019-10-08 14:00:00 23.5 13 Norte 23 Norte 0 -- -- 53
2019-10-08 13:00:00 23.2 11 Norte 20 Norte 0 -- -- 53
2019-10-08 12:00:00 22.6 10 Norte 19 Norte 0 -- -- 54
2019-10-08 11:00:00 21.7 13 Norte 21 Norte 0 -- -- 57
2019-10-08 10:00:00 20.8 14 Norte 21 Norte 0 -- -- 58
2019-10-08 09:00:00 19.6 10 Norte 15 Norte 0 -- -- 60
2019-10-08 08:00:00 18.1 8 Nordeste 23 Norte 0 -- -- 64
2019-10-08 07:00:00 18.6 15 Norte 31 Norte 0 -- -- 60
2019-10-08 06:00:00 18 14 Nordeste 22 Nordeste 0 -- -- 66
2019-10-08 05:00:00 18.3 10 Nordeste 22 Nordeste 0 -- -- 69
2019-10-08 04:00:00 18.5 14 Norte 23 Norte 0 -- -- 69
2019-10-08 03:00:00 18.7 18 Norte 29 Norte 0 -- -- 68
2019-10-08 02:00:00 18.8 14 Norte 24 Norte 0 -- -- 64
2019-10-08 01:00:00 18.9 13 Norte 27 Nordeste 0 -- -- 62
2019-10-08 00:00:00 19.2 18 Norte 33 Norte 0 -- -- 59
2019-10-07 23:00:00 19.2 19 Norte 40 Norte 0 -- -- 57
2019-10-07 22:00:00 19.2 25 Norte 48 Norte 0 -- -- 54
2019-10-07 21:00:00 19.1 26 Norte 46 Norte 0 -- -- 54
2019-10-07 20:00:00 18.9 30 Norte 60 Norte 0 -- -- 52
2019-10-07 19:00:00 19 32 Norte 63 Norte 0 -- -- 51
2019-10-07 18:00:00 19.4 40 Norte 73 Norte 0 -- -- 47
2019-10-07 17:00:00 20.2 41 Norte 73 Norte 0 -- -- 44
2019-10-07 16:00:00 20.3 45 Norte 73 Nordeste 0 -- -- 43
2019-10-07 15:00:00 20.3 51 Norte 77 Norte 0 -- -- 41
2019-10-07 14:00:00 20.1 51 Norte 76 Norte 0 -- -- 41
2019-10-07 13:00:00 20 45 Norte 71 Norte 0 -- -- 43
2019-10-07 12:00:00 19.7 45 Norte 71 Norte 0 -- -- 46
2019-10-07 11:00:00 19.3 35 Norte 61 Norte 0 -- -- 53
2019-10-07 10:00:00 18.5 30 Norte 53 Norte 0 -- -- 57
2019-10-07 09:00:00 18.1 27 Norte 55 Norte 0 -- -- 61
2019-10-07 08:00:00 17.6 30 Norte 50 Norte 0.2 -- -- 68
2019-10-07 07:00:00 16.2 20 Norte 33 Norte 0.6 -- -- 83
2019-10-07 06:00:00 16.4 17 Nordeste 29 Norte 6.8 -- -- 90
2019-10-07 05:00:00 18.4 18 Nordeste 27 Nordeste -- -- -- 83
2019-10-07 04:00:00 18 2 Sudoeste 8 Noroeste 0 -- -- 82
2019-10-07 03:00:00 18 4 Sudoeste 11 Sur 0 -- -- 79
2019-10-07 02:00:00 18.1 4 Sudoeste 7 Sudoeste 0 -- -- 78
2019-10-07 01:00:00 18.5 3 Sudoeste 9 Sur 0 -- -- 74
2019-10-07 00:00:00 19 3 Sur 7 Sudeste 0 -- -- 71
2019-10-06 23:00:00 19.3 2 Este 8 Este 0 -- -- 71
2019-10-06 22:00:00 20 6 Este 11 Este 0 -- -- 69
2019-10-06 21:00:00 20.2 5 Nordeste 12 Sudeste 0 -- -- 68
2019-10-06 20:00:00 20.4 5 Este 13 Este 0 -- -- 67
2019-10-06 19:00:00 21.1 5 Sudeste 16 Nordeste 0 -- -- 65
2019-10-06 18:00:00 21.5 10 Nordeste 18 Nordeste 0 -- -- 64
2019-10-06 17:00:00 22.6 9 Nordeste 18 Este 0 -- -- 61
2019-10-06 16:00:00 23.8 5 Nordeste 19 Norte 0 -- -- 57
2019-10-06 15:00:00 22.8 11 Norte 20 Norte 0 -- -- 61
2019-10-06 14:00:00 22.5 10 Norte 23 Nordeste 0 -- -- 63
2019-10-06 13:00:00 22.7 16 Norte 28 Norte 0 -- -- 62
2019-10-06 12:00:00 20.9 16 Norte 23 Norte 0 -- -- 69
2019-10-06 11:00:00 21 14 Nordeste 20 Nordeste 0 -- -- 68
2019-10-06 10:00:00 20.5 10 Nordeste 15 Nordeste 0 -- -- 72
2019-10-06 09:00:00 19.2 3 Este 5 Oeste 0 -- -- 86
2019-10-06 08:00:00 17.5 2 Sur 4 Sudoeste 0 -- -- 89
2019-10-06 07:00:00 16.8 3 Sudoeste 5 Oeste 0 -- -- 90
2019-10-06 06:00:00 16.6 0 Calma 5 Oeste 0 -- -- 86
2019-10-06 05:00:00 17.7 3 Sur 4 Sudeste 0 -- -- 84
2019-10-06 04:00:00 17.1 3 Oeste 5 Oeste 0 -- -- 83
2019-10-06 03:00:00 17.6 3 Oeste 6 Oeste 0 -- -- 82
2019-10-06 02:00:00 17.1 0 Calma 2 Oeste 0 -- -- 83
2019-10-06 01:00:00 17.5 0 Calma 4 Sudoeste 0 -- -- 81
2019-10-06 00:00:00 18.2 2 Sudoeste 4 Oeste 0 -- -- 78
2019-10-05 23:00:00 17.9 3 Oeste 4 Oeste 0 -- -- 77
2019-10-05 22:00:00 17.9 2 Oeste 4 Oeste 0 -- -- 78
2019-10-05 21:00:00 18.4 3 Oeste 5 Este 0 -- -- 74
2019-10-05 20:00:00 19.6 4 Nordeste 14 Nordeste 0 -- -- 71
2019-10-05 19:00:00 20.9 11 Nordeste 17 Nordeste 0 -- -- 67
2019-10-05 18:00:00 22.1 12 Nordeste 22 Este 0 -- -- 63
2019-10-05 17:00:00 22.2 15 Nordeste 24 Este 0 -- -- 63
2019-10-05 16:00:00 21.9 16 Nordeste 29 Nordeste 0 -- -- 64
2019-10-05 15:00:00 22.7 17 Nordeste 28 Este 0 -- -- 60
2019-10-05 14:00:00 22.9 15 Nordeste 25 Nordeste 0 -- -- 60
2019-10-05 13:00:00 23.2 14 Nordeste 26 Nordeste 0 -- -- 59
2019-10-05 12:00:00 21.9 15 Nordeste 32 Nordeste 0 -- -- 64
2019-10-05 11:00:00 21.4 17 Nordeste 31 Nordeste 0 -- -- 67
2019-10-05 10:00:00 21.1 19 Nordeste 31 Nordeste 0 -- -- 69
2019-10-05 09:00:00 19.6 6 Nordeste 10 Nordeste 0 -- -- 84
2019-10-05 08:00:00 17.9 0 Calma 7 Nordeste 0 -- -- 89
2019-10-05 07:00:00 18.1 0 Calma 4 Nordeste 0 -- -- 89
2019-10-05 06:00:00 18.5 0 Calma 6 Sur 0 -- -- 87
2019-10-05 05:00:00 18.2 4 Sur 6 Sur 0 -- -- 84
2019-10-05 04:00:00 17.8 2 Sur 3 Sudoeste 0 -- -- 83
2019-10-05 03:00:00 17.4 4 Oeste 5 Oeste 0 -- -- 82
2019-10-05 02:00:00 19.3 0 Calma 7 Sudoeste 0 -- -- 76
2019-10-05 01:00:00 19.9 3 Sur 12 Sudoeste 0 -- -- 75
2019-10-05 00:00:00 20.5 9 Sudoeste 15 Sudoeste 0 -- -- 73
2019-10-04 23:00:00 20.7 7 Sudoeste 18 Sudoeste 0 -- -- 75
2019-10-04 22:00:00 21.4 15 Sudoeste 22 Sudoeste 0 -- -- 74
2019-10-04 21:00:00 21.2 11 Sur 27 Sudoeste 0 -- -- 72
2019-10-04 20:00:00 21.5 19 Sudoeste 28 Sudoeste 0 -- -- 68
2019-10-04 19:00:00 22.3 18 Sudoeste 32 Sudoeste 0 -- -- 65
2019-10-04 18:00:00 23.1 21 Sudoeste 30 Sudoeste 0 -- -- 59
2019-10-04 17:00:00 24 19 Sudoeste 32 Sudoeste 0 -- -- 53
2019-10-04 16:00:00 23.8 21 Sudoeste 33 Sur 0 -- -- 62
2019-10-04 15:00:00 23.6 22 Sudoeste 33 Sudoeste 0 -- -- 59
2019-10-04 14:00:00 23.8 21 Sudoeste 36 Sur 0 -- -- 56
2019-10-04 13:00:00 24 19 Sudoeste 30 Sudoeste 0 -- -- 55
2019-10-04 12:00:00 23.3 13 Sudoeste 25 Sur 0 -- -- 55
2019-10-04 11:00:00 22.6 11 Sur 18 Sur 0 -- -- 57
2019-10-04 10:00:00 21.9 6 Sur 10 Sur 0 -- -- 59
2019-10-04 09:00:00 18.8 5 Sur 8 Sur 0 -- -- 74
2019-10-04 08:00:00 15.4 4 Sur 9 Sur 0 -- -- 82
2019-10-04 07:00:00 14.7 5 Sudoeste 7 Sur 0 -- -- 88
2019-10-04 06:00:00 14.9 3 Sur 8 Sudoeste 0 -- -- 89
2019-10-04 05:00:00 15.5 5 Sur 7 Sur 0 -- -- 87
2019-10-04 04:00:00 15.8 3 Sur 6 Sudoeste 0 -- -- 89
2019-10-04 03:00:00 15.7 3 Sudoeste 4 Sudoeste 0 -- -- 90
2019-10-04 02:00:00 16.1 0 Calma 3 Oeste 0 -- -- 90
2019-10-04 01:00:00 15.5 3 Noroeste 6 Nordeste 0 -- -- 88
2019-10-04 00:00:00 16.1 0 Calma 3 Sudoeste 0 -- -- 86
2019-10-03 23:00:00 16.3 4 Sudoeste 6 Sudoeste 0 -- -- 85
2019-10-03 22:00:00 16.8 0 Calma 6 Oeste 0 -- -- 83
2019-10-03 21:00:00 17.8 2 Sudoeste 6 Norte 0 -- -- 78
2019-10-03 20:00:00 19.1 6 Norte 11 Norte 0 -- -- 72
2019-10-03 19:00:00 20.4 9 Norte 22 Noroeste 0 -- -- 68
2019-10-03 18:00:00 21.6 13 Norte 22 Norte 0 -- -- 65
2019-10-03 17:00:00 22 13 Norte 24 Norte 0 -- -- 64
2019-10-03 16:00:00 21.6 14 Norte 25 Norte 0 -- -- 66
2019-10-03 15:00:00 21.8 15 Norte 32 Norte 0 -- -- 65
2019-10-03 14:00:00 21.8 22 Norte 32 Norte 0 -- -- 64
2019-10-03 13:00:00 21.5 18 Norte 30 Norte 0 -- -- 65
2019-10-03 12:00:00 21.3 17 Norte 27 Norte 0 -- -- 65
2019-10-03 11:00:00 20.2 19 Norte 30 Norte 0 -- -- 68
2019-10-03 10:00:00 20.1 20 Norte 37 Norte 0 -- -- 66
2019-10-03 09:00:00 20.1 21 Norte 37 Norte 0 -- -- 65
2019-10-03 08:00:00 19.8 22 Norte 36 Norte 0 -- -- 65
2019-10-03 07:00:00 20.1 24 Norte 37 Norte 0 -- -- 60
2019-10-03 06:00:00 20.1 24 Norte 44 Norte 0 -- -- 59
2019-10-03 05:00:00 19.9 24 Norte 43 Norte 0 -- -- 66
2019-10-03 04:00:00 19.6 25 Norte 44 Norte 0 -- -- 67
2019-10-03 03:00:00 19.9 26 Norte 51 Norte 0 -- -- 66
2019-10-03 02:00:00 20.2 27 Norte 51 Norte 0 -- -- 64
2019-10-03 01:00:00 20.4 31 Norte 49 Norte 0 -- -- 63
2019-10-03 00:00:00 20.7 26 Norte 44 Norte 0 -- -- 61
2019-10-02 23:00:00 21.2 28 Norte 43 Norte 0 -- -- 58
2019-10-02 22:00:00 21.2 19 Norte 36 Norte 0 -- -- 63
2019-10-02 21:00:00 21 17 Norte 26 Norte 0 -- -- 65
2019-10-02 20:00:00 21.2 14 Norte 26 Norte 0 -- -- 66
2019-10-02 19:00:00 21.3 14 Norte 29 Norte 0 -- -- 66
2019-10-02 18:00:00 21.5 19 Norte 30 Norte 0 -- -- 65
2019-10-02 17:00:00 22 18 Norte 31 Norte 0 -- -- 63
2019-10-02 16:00:00 22.4 19 Norte 37 Norte 0 -- -- 60
2019-10-02 15:00:00 22.8 22 Norte 40 Norte 0 -- -- 61
2019-10-02 14:00:00 22.9 27 Nordeste 43 Nordeste 0 -- -- 60
2019-10-02 13:00:00 22.7 26 Nordeste 49 Nordeste 0 -- -- 59
2019-10-02 12:00:00 22.6 29 Nordeste 43 Nordeste 0 -- -- 56
2019-10-02 11:00:00 21.8 26 Nordeste 42 Nordeste 0 -- -- 59
2019-10-02 10:00:00 21.7 27 Nordeste 43 Nordeste 0 -- -- 60
2019-10-02 09:00:00 21.8 26 Nordeste 41 Nordeste 0 -- -- 52
2019-10-02 08:00:00 21.4 21 Nordeste 41 Nordeste 0 -- -- 60
2019-10-02 07:00:00 21.5 22 Nordeste 43 Nordeste 0 -- -- 65
2019-10-02 06:00:00 21.5 30 Nordeste 50 Norte 0 -- -- 65
2019-10-02 05:00:00 21.7 29 Nordeste 53 Nordeste 0 -- -- 69
2019-10-02 04:00:00 21.7 26 Nordeste 46 Nordeste 0 -- -- 74
2019-10-02 03:00:00 22.6 18 Norte 30 Norte 0 -- -- 81
2019-10-02 02:00:00 22.4 11 Norte 24 Norte 0 -- -- 84
2019-10-02 01:00:00 22.6 17 Norte 26 Norte 0 -- -- 87
2019-10-02 00:00:00 22.3 6 Noroeste 15 Sudoeste 0 -- -- 89
2019-10-01 23:00:00 22.4 16 Sudoeste 24 Sudoeste 0 -- -- 88
2019-10-01 22:00:00 22.3 10 Sudoeste 18 Sudoeste 0 -- -- 87
2019-10-01 21:00:00 22.4 13 Sudoeste 19 Sur 0 -- -- 86
2019-10-01 20:00:00 22.9 10 Sudoeste 18 Sur 0 -- -- 84
2019-10-01 19:00:00 23.8 9 Sur 22 Sudoeste 0 -- -- 77
2019-10-01 18:00:00 25.2 15 Sudoeste 25 Sur 0 -- -- 71
2019-10-01 17:00:00 25.9 15 Sur 25 Sur -- -- -- 65
2019-10-01 16:00:00 26.6 18 Sudoeste 27 Sur 0 -- -- 59
2019-10-01 15:00:00 27.2 15 Sudoeste 28 Sur 0 -- -- 59
2019-10-01 14:00:00 26.4 19 Sudoeste 32 Oeste 0 -- -- 61
2019-10-01 13:00:00 26.2 17 Sudoeste 30 Sudoeste 0 -- -- 64
2019-10-01 12:00:00 25.2 20 Sur 31 Sudoeste 0 -- -- 69
2019-10-01 11:00:00 23.7 15 Sudoeste 23 Sudoeste 0 -- -- 74
2019-10-01 10:00:00 23.5 14 Sur 19 Sur 0 -- -- 77
2019-10-01 09:00:00 21.2 9 Sudoeste 14 Sudoeste 0 -- -- 89
2019-10-01 08:00:00 19.8 9 Sudoeste 13 Sudoeste 0 -- -- 91
2019-10-01 07:00:00 19.9 6 Sudoeste 13 Sudoeste 0 -- -- 92
2019-10-01 06:00:00 19.9 8 Sudoeste 13 Sudoeste 0 -- -- 91
2019-10-01 05:00:00 20.2 4 Sudoeste 7 Sudoeste 0 -- -- 91
2019-10-01 04:00:00 20.5 5 Sur 6 Sudoeste 0 -- -- 89
2019-10-01 03:00:00 21.6 3 Oeste 13 Sudoeste 0 -- -- 87
2019-10-01 02:00:00 21.7 5 Sudoeste 13 Sudoeste 0 -- -- 88
2019-10-01 01:00:00 21.8 6 Sudoeste 18 Sudoeste 0 -- -- 88
2019-10-01 00:00:00 22 8 Sur 17 Sur 0 -- -- 88
2019-09-30 23:00:00 21.6 10 Sudoeste 16 Sur 0 -- -- 88
2019-09-30 22:00:00 21.5 10 Sudoeste 16 Sur 0 -- -- 86
2019-09-30 21:00:00 21.9 10 Sudoeste 14 Sudoeste 0 -- -- 85
2019-09-30 20:00:00 22.3 5 Sudoeste 19 Sudoeste 0 -- -- 80
2019-09-30 19:00:00 23.9 12 Sur 20 Sur 0 -- -- 75
2019-09-30 18:00:00 25.2 7 Nordeste 15 Nordeste 0 -- -- 70
2019-09-30 17:00:00 25.4 8 Norte 17 Norte 0 -- -- 70
2019-09-30 16:00:00 26.9 9 Nordeste 18 Nordeste 0 -- -- 66
2019-09-30 15:00:00 26.9 6 Norte 17 Nordeste 0 -- -- 65
2019-09-30 14:00:00 26.6 7 Norte 16 Nordeste 0 -- -- 63
2019-09-30 13:00:00 27.5 5 Norte 15 Norte 0 -- -- 58
2019-09-30 12:00:00 26.1 9 Nordeste 15 Nordeste 0 -- -- 60
2019-09-30 11:00:00 24.9 7 Norte 15 Norte 0 -- -- 68
2019-09-30 10:00:00 23 7 Norte 13 Norte 0 -- -- 87
2019-09-30 09:00:00 21.5 0 Calma 5 Sudoeste 0 -- -- 92
2019-09-30 08:00:00 20 2 Sur 7 Oeste 0 -- -- 94
2019-09-30 07:00:00 19.4 4 Oeste 6 Sudoeste 0 -- -- 93
2019-09-30 06:00:00 19.9 6 Oeste 9 Sudoeste 0 -- -- 93
2019-09-30 05:00:00 20.4 6 Sudoeste 17 Sudoeste 0 -- -- 92
2019-09-30 04:00:00 21.1 14 Sudoeste 19 Sudoeste 0 -- -- 91
2019-09-30 03:00:00 21.2 8 Sudoeste 13 Sudoeste 0 -- -- 91
2019-09-30 02:00:00 21.4 4 Sur 22 Sudoeste 0 -- -- 90
2019-09-30 01:00:00 21.8 17 Sudoeste 26 Sudoeste 0 -- -- 90
2019-09-30 00:00:00 22.1 18 Sudoeste 30 Sudoeste 0 -- -- 89
2019-09-29 23:00:00 22.1 19 Sudoeste 28 Sudoeste 0 -- -- 88
2019-09-29 22:00:00 22.2 15 Sur 24 Sur 0 -- -- 87
2019-09-29 21:00:00 22.4 15 Sur 28 Sur 0 -- -- 86
2019-09-29 20:00:00 22.8 18 Sur 32 Sur 0 -- -- 83
2019-09-29 19:00:00 23.6 23 Sur 37 Sur 0 -- -- 79
2019-09-29 18:00:00 25 19 Sur 31 Sur 0 -- -- 71
2019-09-29 17:00:00 25.7 19 Sudoeste 30 Sudoeste 0 -- -- 64
2019-09-29 16:00:00 26.3 18 Sur 27 Sudoeste 0 -- -- 62
2019-09-29 15:00:00 26.6 17 Sudoeste 26 Sudoeste 0 -- -- 59
2019-09-29 14:00:00 26.9 16 Sudoeste 28 Sudoeste 0 -- -- 54
2019-09-29 13:00:00 26.3 14 Sur 30 Sur 0 -- -- 61
2019-09-29 12:00:00 25.1 17 Sudoeste 26 Sudoeste 0 -- -- 66
2019-09-29 11:00:00 24.3 18 Sudoeste 24 Sur 0 -- -- 70
2019-09-29 10:00:00 22.4 14 Sudoeste 19 Sudoeste 0 -- -- 82
2019-09-29 09:00:00 21.5 8 Sudoeste 10 Sudoeste 0 -- -- 89
2019-09-29 08:00:00 20.4 8 Sudoeste 12 Sudoeste 0 -- -- 91
2019-09-29 07:00:00 20.5 11 Sudoeste 14 Sur 0 -- -- 90
2019-09-29 06:00:00 20.5 12 Sur 19 Sudoeste 0 -- -- 90
2019-09-29 05:00:00 20.7 14 Sudoeste 23 Sudoeste 0 -- -- 90
2019-09-29 04:00:00 20.6 11 Sudoeste 15 Sudoeste 0 -- -- 91
2019-09-29 03:00:00 20.3 9 Sur 12 Sur 0 -- -- 90
2019-09-29 02:00:00 20.6 4 Sur 12 Sudoeste 0 -- -- 89
2019-09-29 01:00:00 20.8 8 Sudoeste 12 Sudoeste 0 -- -- 88
2019-09-29 00:00:00 21 8 Sur 11 Sur 0 -- -- 87
2019-09-28 23:00:00 21.1 6 Sur 9 Sur 0 -- -- 87
2019-09-28 22:00:00 21.2 6 Sur 9 Sur 0 -- -- 86
2019-09-28 21:00:00 21.8 4 Sudoeste 12 Sudoeste 0 -- -- 83
2019-09-28 20:00:00 22.7 5 Sudoeste 15 Sudoeste 0 -- -- 80
2019-09-28 19:00:00 23.8 3 Nordeste 13 Norte 0 -- -- 76
2019-09-28 18:00:00 24.6 10 Nordeste 14 Nordeste 0 -- -- 71
2019-09-28 17:00:00 24.8 4 Norte 14 Nordeste 0 -- -- 73
2019-09-28 16:00:00 24.3 10 Norte 17 Norte 0 -- -- 76
2019-09-28 15:00:00 24.5 11 Nordeste 18 Nordeste 0 -- -- 75
2019-09-28 14:00:00 25 8 Nordeste 18 Norte 0 -- -- 72
2019-09-28 13:00:00 25.8 12 Norte 18 Norte 0 -- -- 65
2019-09-28 12:00:00 26.1 11 Norte 17 Norte 0 -- -- 65
2019-09-28 11:00:00 25.8 8 Norte 17 Nordeste 0 -- -- 64
2019-09-28 10:00:00 24.2 5 Norte 9 Norte 0 -- -- 75
2019-09-28 09:00:00 22.1 0 Calma 5 Sudoeste 0 -- -- 88
2019-09-28 08:00:00 19.8 5 Sur 6 Sur 0 -- -- 92
2019-09-28 07:00:00 19.7 3 Sudoeste 4 Sudoeste 0 -- -- 92
2019-09-28 06:00:00 19.7 3 Sur 4 Sudoeste 0 -- -- 91
2019-09-28 05:00:00 19.8 4 Sudoeste 5 Oeste 0 -- -- 90
2019-09-28 04:00:00 20.6 2 Nordeste 15 Sudoeste 0 -- -- 88
2019-09-28 03:00:00 21.3 11 Sudoeste 14 Sudoeste 0 -- -- 86
2019-09-28 02:00:00 21.2 10 Sudoeste 17 Sudoeste 0 -- -- 87
2019-09-28 01:00:00 22.1 17 Sudoeste 24 Sudoeste 0 -- -- 83
2019-09-28 00:00:00 22.2 17 Sudoeste 26 Sudoeste 0 -- -- 82
2019-09-27 23:00:00 22 17 Sudoeste 22 Sudoeste 0 -- -- 83
2019-09-27 22:00:00 22 8 Sudoeste 13 Sur 0 -- -- 83
2019-09-27 21:00:00 22.3 9 Sur 21 Sur 0 -- -- 80
2019-09-27 20:00:00 22.8 14 Sur 27 Sur 0 -- -- 78
2019-09-27 19:00:00 23.9 20 Sur 28 Sur 0 -- -- 72
2019-09-27 18:00:00 25 19 Sur 30 Sur 0 -- -- 67
2019-09-27 17:00:00 25.3 21 Sur 32 Sur 0 -- -- 65
2019-09-27 16:00:00 26.2 19 Sur 30 Sur 0 -- -- 61
2019-09-27 15:00:00 26.7 17 Sudoeste 30 Sudoeste 0 -- -- 57
2019-09-27 14:00:00 27.2 16 Sur 26 Sur 0 -- -- 51
2019-09-27 13:00:00 26.4 17 Sudoeste 24 Sudoeste 0 -- -- 54
2019-09-27 12:00:00 25.3 16 Sudoeste 26 Sudoeste 0 -- -- 59
2019-09-27 11:00:00 25.8 13 Sudoeste 22 Sur 0 -- -- 59
2019-09-27 10:00:00 23.9 12 Sur 18 Sur 0 -- -- 72
2019-09-27 09:00:00 22.4 9 Sudoeste 14 Sudoeste 0 -- -- 82
2019-09-27 08:00:00 20.3 9 Sudoeste 13 Sudoeste 0 -- -- 87
2019-09-27 07:00:00 19.6 10 Sudoeste 11 Sudoeste 0 -- -- 87
2019-09-27 06:00:00 19.9 8 Sudoeste 9 Sudoeste 0 -- -- 86
2019-09-27 05:00:00 20.2 8 Sur 13 Sur 0 -- -- 86
2019-09-27 04:00:00 20.6 9 Sur 15 Sur 0 -- -- 83
2019-09-27 03:00:00 20.8 11 Sur 15 Sudoeste 0 -- -- 83
2019-09-27 02:00:00 20.9 12 Sudoeste 15 Sudoeste 0 -- -- 82
2019-09-27 01:00:00 21.1 12 Sudoeste 17 Sudoeste 0 -- -- 80
2019-09-27 00:00:00 21.1 10 Sur 14 Sur 0 -- -- 80
2019-09-26 23:00:00 21.3 11 Sudoeste 18 Sudoeste 0 -- -- 78
2019-09-26 22:00:00 21.3 9 Sudoeste 13 Sudoeste 0 -- -- 76
2019-09-26 21:00:00 21.5 8 Sudoeste 14 Sudoeste 0 -- -- 74
2019-09-26 20:00:00 22.3 10 Sudoeste 18 Sudoeste 0 -- -- 70
2019-09-26 19:00:00 23.7 13 Sudoeste 22 Sur 0 -- -- 63
2019-09-26 18:00:00 25.9 5 Sur 14 Nordeste 0 -- -- 55
2019-09-26 17:00:00 24.7 3 Este 9 Este 0 -- -- 59
2019-09-26 16:00:00 24 8 Nordeste 19 Nordeste 0 -- -- 62
2019-09-26 15:00:00 24.9 5 Nordeste 14 Norte 0 -- -- 58
2019-09-26 14:00:00 24.3 7 Norte 40 Sudoeste 0 -- -- 59
2019-09-26 13:00:00 26.7 10 Sudoeste 23 Sur 0 -- -- 46
2019-09-26 12:00:00 25.2 10 Sudoeste 18 Sudeste 0 -- -- 49
2019-09-26 11:00:00 24.4 6 Sudoeste 12 Sudoeste 0 -- -- 54
2019-09-26 10:00:00 23.1 3 Nordeste 6 Este 0 -- -- 64
2019-09-26 09:00:00 21.3 0 Calma 5 Sudoeste 0 -- -- 74
2019-09-26 08:00:00 17.1 3 Sudoeste 6 Sur 0 -- -- 85
2019-09-26 07:00:00 17.8 3 Sudoeste -- -- 0 -- -- 84
2019-09-26 06:00:00 17.5 2 Sudoeste 5 Oeste 0 -- -- 84
2019-09-26 05:00:00 17.8 2 Oeste 3 Oeste 0 -- -- 81
2019-09-26 04:00:00 18.2 2 Sudoeste 4 Sudoeste 0 -- -- 81
2019-09-26 03:00:00 18.1 3 Sudoeste 5 Sudoeste 0 -- -- 78
2019-09-26 02:00:00 18.7 3 Oeste 5 Oeste 0 -- -- 78
2019-09-26 01:00:00 18.1 3 Oeste 5 Oeste 0 -- -- 80
2019-09-26 00:00:00 18.2 3 Sudoeste 4 Sudoeste 0 -- -- 82
2019-09-25 23:00:00 19.1 0 Calma 3 Noroeste 0 -- -- 78
2019-09-25 22:00:00 19.8 0 Calma 10 Nordeste 0 -- -- 75
2019-09-25 21:00:00 20.3 8 Nordeste 12 Nordeste 0 -- -- 75
2019-09-25 20:00:00 20.9 9 Nordeste 21 Nordeste 0 -- -- 74
2019-09-25 19:00:00 21.5 16 Nordeste 30 Nordeste 0 -- -- 71
2019-09-25 18:00:00 22.2 22 Nordeste 35 Nordeste 0 -- -- 68
2019-09-25 17:00:00 22.7 21 Nordeste 33 Nordeste 0 -- -- 68
2019-09-25 16:00:00 22.4 23 Nordeste 35 Nordeste 0 -- -- 69
2019-09-25 15:00:00 22.3 22 Nordeste 37 Nordeste 0 -- -- 73
2019-09-25 14:00:00 23.6 19 Nordeste 40 Nordeste 0 -- -- 73
2019-09-25 13:00:00 24.4 23 Nordeste 34 Nordeste 0 -- -- 72
2019-09-25 12:00:00 25.8 13 Nordeste 23 Nordeste 0 -- -- 65
2019-09-25 11:00:00 24.8 6 Nordeste 14 Norte 0 -- -- 73
2019-09-25 10:00:00 23.5 4 Este 9 Nordeste 0 -- -- 88
2019-09-25 09:00:00 21 3 Nordeste 5 Nordeste 0 -- -- 93
2019-09-25 08:00:00 19.6 6 Sur 8 Sur 0 -- -- 95
2019-09-25 07:00:00 19.7 2 Sur 5 Sur 0 -- -- 91
2019-09-25 06:00:00 19.4 3 Sudoeste 6 Sur 0 -- -- 93
2019-09-25 05:00:00 20 4 Sur 9 Sur 0 -- -- 92
2019-09-25 04:00:00 19.6 4 Sudoeste 6 Sudoeste 0 -- -- 93
2019-09-25 03:00:00 19.7 3 Sudoeste 5 Sudeste 0 -- -- 91
2019-09-25 02:00:00 20.2 2 Sur 8 Sur 0 -- -- 90
2019-09-25 01:00:00 21 3 Sur 6 Sudoeste 0 -- -- 90
2019-09-25 00:00:00 21.2 2 Sudoeste 11 Sudoeste 0 -- -- 89
2019-09-24 23:00:00 22.2 5 Oeste 19 Sudoeste 0 -- -- 87
2019-09-24 22:00:00 22.7 11 Sudoeste 18 Sudoeste 0 -- -- 85
2019-09-24 21:00:00 23 9 Sudoeste 22 Sudoeste 0 -- -- 84
2019-09-24 20:00:00 23.4 11 Sudoeste 33 Sudoeste 0 -- -- 82
2019-09-24 19:00:00 24.6 18 Sudoeste 35 Sudoeste 0 -- -- 76
2019-09-24 18:00:00 25.2 24 Sudoeste 35 Sudoeste 0 -- -- 73
2019-09-24 17:00:00 26.4 24 Sudoeste 36 Sudoeste 0 -- -- 68
2019-09-24 16:00:00 26.5 25 Sudoeste 37 Sudoeste 0 -- -- 67
2019-09-24 15:00:00 27 21 Sudoeste 33 Sudoeste 0 -- -- 61
2019-09-24 14:00:00 27.1 19 Sudoeste 33 Sudoeste 0 -- -- 56
2019-09-24 13:00:00 26.4 22 Sudoeste 34 Sudoeste 0 -- -- 55
2019-09-24 12:00:00 26.7 20 Sudoeste 31 Sudoeste 0 -- -- 48
2019-09-24 11:00:00 25 19 Sudoeste 26 Sudoeste 0 -- -- 60
2019-09-24 10:00:00 23.6 18 Sudoeste 26 Sudoeste 0 -- -- 66
2019-09-24 09:00:00 22.1 14 Sudoeste 20 Sudoeste 0 -- -- 79
2019-09-24 08:00:00 20.6 11 Sudoeste 23 Sudoeste 0 -- -- 85
2019-09-24 07:00:00 20.4 13 Sudoeste 18 Sudoeste 0 -- -- 88
2019-09-24 06:00:00 19.4 6 Sur 12 Sudoeste 0 -- -- 88
2019-09-24 05:00:00 19.6 7 Sur 11 Sudoeste 0 -- -- 85
2019-09-24 04:00:00 19.7 10 Sudoeste 13 Sudoeste 0 -- -- 84
2019-09-24 03:00:00 19.1 4 Sur 11 Sudoeste 0 -- -- 81
2019-09-24 02:00:00 20.1 10 Sudoeste 11 Sudoeste 0 -- -- 78
2019-09-24 01:00:00 19.6 5 Sudoeste 10 Sudoeste 0 -- -- 78
2019-09-24 00:00:00 19.9 5 Sudoeste 13 Sudoeste 0 -- -- 75
2019-09-23 23:00:00 20 6 Sudoeste 11 Sudoeste 0 -- -- 74
2019-09-23 22:00:00 19.6 5 Sur 6 Oeste 0 -- -- 69
2019-09-23 21:00:00 20 0 Calma 5 Oeste 0 -- -- 67
2019-09-23 20:00:00 21.2 3 Este 7 Nordeste 0 -- -- 62
2019-09-23 19:00:00 22.3 5 Norte 12 Norte 0 -- -- 60
2019-09-23 18:00:00 23.4 9 Norte 17 Noroeste 0 -- -- 56
2019-09-23 17:00:00 24.1 11 Norte 21 Nordeste 0 -- -- 53
2019-09-23 16:00:00 24.7 10 Norte 21 Nordeste 0 -- -- 50
2019-09-23 15:00:00 24.6 13 Norte 24 Norte 0 -- -- 51
2019-09-23 14:00:00 24.2 13 Nordeste 25 Nordeste 0 -- -- 53
2019-09-23 13:00:00 23.8 17 Nordeste 26 Nordeste 0 -- -- 56
2019-09-23 12:00:00 22.9 17 Nordeste 29 Nordeste 0 -- -- 62
2019-09-23 11:00:00 22.5 18 Nordeste 30 Nordeste 0 -- -- 66
2019-09-23 10:00:00 22.2 20 Nordeste 32 Nordeste 0 -- -- 68
2019-09-23 09:00:00 21.8 17 Nordeste 24 Nordeste 0 -- -- 70
2019-09-23 08:00:00 20.8 14 Norte 28 Nordeste 0 -- -- 70
2019-09-23 07:00:00 20.8 14 Norte 24 Norte 0 -- -- 74
2019-09-23 06:00:00 20.8 15 Norte 28 Nordeste 0 -- -- 74
2019-09-23 05:00:00 21.4 14 Norte 28 Nordeste 0 -- -- 77
2019-09-23 04:00:00 21.6 10 Norte 25 Norte 0 -- -- 84
2019-09-23 03:00:00 23.1 9 Norte 19 Norte 0 -- -- 83
2019-09-23 02:00:00 22.5 7 Oeste 13 Sudoeste 0 -- -- 86
2019-09-23 01:00:00 22.5 10 Sudoeste 18 Sudoeste 0 -- -- 85
2019-09-23 00:00:00 22.2 4 Sur 13 Sudoeste 0 -- -- 86
2019-09-22 23:00:00 22.6 10 Sudoeste 15 Sur 0 -- -- 86
2019-09-22 22:00:00 22.8 3 Oeste 16 Sudoeste 0 -- -- 85
2019-09-22 21:00:00 23.7 14 Sudoeste 30 Sudoeste 0 -- -- 82
2019-09-22 20:00:00 24.3 27 Sudoeste 40 Sudoeste 0 -- -- 81
2019-09-22 19:00:00 24.5 20 Sudoeste 32 Sudoeste 0 -- -- 81
2019-09-22 18:00:00 25.1 21 Sudoeste 29 Sudoeste 0 -- -- 79
2019-09-22 17:00:00 26.5 19 Sudoeste 26 Sudoeste 0 -- -- 71
2019-09-22 16:00:00 27.5 15 Sur 31 Sur 0 -- -- 67
2019-09-22 15:00:00 27.6 17 Sudoeste 26 Sur 0 -- -- 64
2019-09-22 14:00:00 26.8 19 Sur 28 Sur 0 -- -- 65
2019-09-22 13:00:00 28.3 13 Sudoeste 26 Sudoeste 0 -- -- 59
2019-09-22 12:00:00 27.7 13 Sudoeste 25 Sudoeste 0 -- -- 60
2019-09-22 11:00:00 26.3 8 Oeste 20 Sudoeste 0 -- -- 68
2019-09-22 10:00:00 24.5 13 Oeste 20 Oeste 0 -- -- 77
2019-09-22 09:00:00 22.9 9 Oeste 16 Oeste 0 -- -- 88
2019-09-22 08:00:00 22.1 8 Oeste 17 Oeste 0 -- -- 90
2019-09-22 07:00:00 22.4 13 Oeste 20 Oeste 0 -- -- 89
2019-09-22 06:00:00 22.6 13 Oeste 25 Oeste 0 -- -- 89
2019-09-22 05:00:00 22.8 15 Oeste 25 Oeste 0 -- -- 88
2019-09-22 04:00:00 22.7 9 Oeste 15 Oeste 0 -- -- 87
2019-09-22 03:00:00 22.9 8 Oeste 13 Sudoeste 0 -- -- 90
2019-09-22 02:00:00 22.6 6 Sudoeste 9 Sudoeste 0 -- -- 92
2019-09-22 01:00:00 22.5 5 Sudoeste 8 Sur 0 -- -- 91
2019-09-22 00:00:00 22.4 5 Oeste 8 Oeste 0 -- -- 90
2019-09-21 23:00:00 22.4 0 Calma 6 Nordeste 0 -- -- 88
2019-09-21 22:00:00 23.2 4 Nordeste 7 Nordeste 0 -- -- 84
2019-09-21 21:00:00 24.3 0 Calma 15 Sudeste 0 -- -- 82
2019-09-21 20:00:00 25.3 10 Sur 17 Sur 0 -- -- 76
2019-09-21 19:00:00 27.1 11 Sur 23 Sur 0 -- -- 69
2019-09-21 18:00:00 26.6 13 Sur 34 Sur 0 -- -- 75
2019-09-21 17:00:00 28.8 16 Sur 40 Sudeste 0 -- -- 62
2019-09-21 16:00:00 29.1 26 Sur 44 Sudeste 0 -- -- 60
2019-09-21 15:00:00 26.4 26 Sudeste 50 Sur 0 -- -- 77
2019-09-21 14:00:00 26.1 29 Sur 51 Sudeste 0 -- -- 79
2019-09-21 13:00:00 26.1 36 Sudeste 54 Sur 0 -- -- 78
2019-09-21 12:00:00 25.8 33 Sudeste 61 Sudeste 0 -- -- 81
2019-09-21 11:00:00 24 33 Sudeste 54 Sudeste 0.2 -- -- 88
2019-09-21 10:00:00 24.3 26 Sudeste 48 Sudeste 0 -- -- 85
2019-09-21 09:00:00 24.1 17 Sudeste 30 Este 0 -- -- 86
2019-09-21 08:00:00 23.5 12 Sudeste 31 Este 0 -- -- 87
2019-09-21 07:00:00 23.8 15 Sudeste 47 Sudeste 0 -- -- 83
2019-09-21 06:00:00 23.8 19 Sudeste 49 Este 0 -- -- 82
2019-09-21 05:00:00 23.6 22 Este 42 Sudeste 0 -- -- 82
2019-09-21 04:00:00 23.6 22 Este 41 Sudeste 0 -- -- 83
2019-09-21 03:00:00 23.3 15 Este 29 Este 0 -- -- 85
2019-09-21 02:00:00 23.2 9 Este 19 Sudeste 0 -- -- 86
2019-09-21 01:00:00 23 7 Sudeste 20 Sudeste 0 -- -- 85
2019-09-21 00:00:00 23.1 10 Este 26 Este 0 -- -- 84
2019-09-20 23:00:00 23.2 12 Este 21 Sudeste 0 -- -- 86
2019-09-20 22:00:00 22.8 11 Nordeste 21 Nordeste 0 -- -- 86
2019-09-20 21:00:00 22.7 9 Nordeste 15 Este 0 -- -- 82
2019-09-20 20:00:00 23.1 11 Este 22 Este 0 -- -- 79
2019-09-20 19:00:00 23.7 8 Este 31 Nordeste 0 -- -- 76
2019-09-20 18:00:00 24.5 19 Nordeste 31 Nordeste 0 -- -- 71
2019-09-20 17:00:00 24.8 18 Nordeste 30 Nordeste 0 -- -- 70
2019-09-20 16:00:00 26.1 16 Nordeste 31 Nordeste 0 -- -- 64
2019-09-20 15:00:00 25.7 17 Nordeste 28 Nordeste 0 -- -- 62
2019-09-20 14:00:00 25.6 16 Nordeste 27 Este 0 -- -- 60
2019-09-20 13:00:00 26.4 12 Nordeste 27 Nordeste 0 -- -- 57
2019-09-20 12:00:00 25.8 11 Nordeste 23 Nordeste 0 -- -- 65
2019-09-20 11:00:00 25.2 10 Nordeste 18 Nordeste 0 -- -- 68
2019-09-20 10:00:00 24.3 10 Este 15 Este 0 -- -- 77
2019-09-20 09:00:00 20.5 0 Calma 3 Noroeste 0 -- -- 91
2019-09-20 08:00:00 19.4 3 Norte 3 Norte 0 -- -- 92
2019-09-20 07:00:00 19.1 0 Calma 5 Norte 0 -- -- 92
2019-09-20 06:00:00 19.3 0 Calma 4 Noroeste 0 -- -- 91
2019-09-20 05:00:00 19.2 2 Oeste 3 Oeste 0 -- -- 93
2019-09-20 04:00:00 19.3 2 Noroeste 4 Noroeste 0 -- -- 92
2019-09-20 03:00:00 19.6 2 Norte 5 Norte 0 -- -- 92
2019-09-20 02:00:00 19.8 4 Nordeste 5 Nordeste 0 -- -- 91
2019-09-20 01:00:00 19.9 0 Calma 6 Nordeste 0 -- -- 91
2019-09-20 00:00:00 20.5 0 Calma 4 Nordeste 0 -- -- 90
2019-09-19 23:00:00 20.8 2 Nordeste 3 Nordeste 0 -- -- 88
2019-09-19 22:00:00 21.4 0 Calma 5 Nordeste 0 -- -- 86
2019-09-19 21:00:00 22 4 Nordeste 8 Nordeste 0 -- -- 84
2019-09-19 20:00:00 22.7 6 Nordeste 15 Nordeste 0 -- -- 81
2019-09-19 19:00:00 24.3 9 Nordeste 16 Este 0 -- -- 72
2019-09-19 18:00:00 25.2 10 Nordeste 22 Este 0 -- -- 67
2019-09-19 17:00:00 25.7 13 Nordeste 24 Nordeste 0 -- -- 65
2019-09-19 16:00:00 25.7 17 Nordeste 26 Nordeste 0 -- -- 71
2019-09-19 15:00:00 26.8 13 Nordeste 23 Norte 0 -- -- 63
2019-09-19 14:00:00 26.3 10 Norte 17 Nordeste 0 -- -- 66
2019-09-19 13:00:00 26 10 Norte 21 Nordeste 0 -- -- 68
2019-09-19 12:00:00 25.6 9 Nordeste 18 Norte 0 -- -- 70
2019-09-19 11:00:00 23.9 11 Nordeste 16 Nordeste 0 -- -- 84
2019-09-19 10:00:00 22.2 8 Norte 12 Norte 0 -- -- 93
2019-09-19 09:00:00 21.7 0 Calma 2 Norte 0 -- -- 94
2019-09-19 08:00:00 20 0 Calma 4 Noroeste 0 -- -- 95
2019-09-19 07:00:00 19.8 0 Calma 3 Sur 0 -- -- 95
2019-09-19 06:00:00 20.3 0 Calma 3 Sur 0 -- -- 93
2019-09-19 05:00:00 20.7 3 Oeste 5 Sur 0 -- -- 93
2019-09-19 04:00:00 20.7 2 Sudoeste 5 Sudoeste 0 -- -- 94
2019-09-19 03:00:00 20.8 3 Sudoeste 4 Sudoeste 0 -- -- 94
2019-09-19 02:00:00 20.6 0 Calma 5 Oeste 0 -- -- 92
2019-09-19 01:00:00 20.9 0 Calma 5 Sudeste 0 -- -- 92
2019-09-19 00:00:00 21.8 4 Sur 5 Sudeste 0 -- -- 91
2019-09-18 23:00:00 22.3 0 Calma 5 Nordeste 0 -- -- 90
2019-09-18 22:00:00 22.6 3 Nordeste 8 Nordeste 0 -- -- 89
2019-09-18 21:00:00 23 5 Norte 10 Norte 0 -- -- 88
2019-09-18 20:00:00 23.4 5 Norte 14 Nordeste 0 -- -- 85
2019-09-18 19:00:00 24.5 9 Nordeste 16 Este 0 -- -- 79
2019-09-18 18:00:00 25 10 Nordeste 18 Nordeste 0 -- -- 74
2019-09-18 17:00:00 26.3 10 Norte 22 Noroeste 0 -- -- 69
2019-09-18 16:00:00 25.4 14 Norte 23 Norte 0 -- -- 76
2019-09-18 15:00:00 25.6 11 Norte 20 Norte 0 -- -- 76
2019-09-18 14:00:00 25.3 9 Noroeste 15 Norte 0 -- -- 75
2019-09-18 13:00:00 25.7 6 Noroeste 16 Sudoeste 0 -- -- 70
2019-09-18 12:00:00 26.4 7 Norte 11 Norte 0 -- -- 66
2019-09-18 11:00:00 25.8 3 Noroeste 9 Este 0 -- -- 72
2019-09-18 10:00:00 24.7 4 Este -- -- -- -- -- 83
2019-09-18 09:00:00 22.9 0 Calma 3 Nordeste 0 -- -- 90
2019-09-18 08:00:00 21.5 0 Calma 2 Norte 0 -- -- 92
2019-09-18 07:00:00 21.6 0 Calma 5 Noroeste 0 -- -- 90
2019-09-18 06:00:00 21.1 0 Calma 3 Oeste 0 -- -- 90
2019-09-18 05:00:00 21.8 2 Este 5 Sur 0 -- -- 87
2019-09-18 04:00:00 22.3 3 Sur 9 Sudoeste 0 -- -- 87
2019-09-18 03:00:00 22.9 7 Sudoeste 14 Sudoeste 0 -- -- 86
2019-09-18 02:00:00 23 7 Sudoeste 18 Sudoeste 0 -- -- 87
2019-09-18 01:00:00 22.9 14 Sudoeste 17 Sudoeste 0 -- -- 86
2019-09-18 00:00:00 22.3 8 Sudeste 14 Sudoeste 0 -- -- 86
2019-09-17 23:00:00 22.6 9 Sudoeste 17 Sur 0 -- -- 85
2019-09-17 22:00:00 22.8 12 Sur 17 Sur 0 -- -- 85
2019-09-17 21:00:00 23.1 9 Sudoeste 13 Sudoeste 0 -- -- 83
2019-09-15 18:00:00 26.4 23 Este 46 Este 0 -- -- 63
2019-09-15 17:00:00 27 31 Este 45 Sudeste 0 -- -- 59
2019-09-15 16:00:00 27.9 26 Este 43 Sudeste 0 -- -- 57
2019-09-15 15:00:00 28.1 24 Este 40 Sudeste 0 -- -- 60
2019-09-15 14:00:00 28.6 21 Sudeste 38 Sudeste 0 -- -- 61
2019-09-15 13:00:00 27.7 22 Sudeste 43 Este 0 -- -- 66
2019-09-15 12:00:00 26.4 24 Sudeste 41 Sudeste 0 -- -- 75
2019-09-15 11:00:00 24.7 24 Sudeste 41 Este 0 -- -- 81
2019-09-15 10:00:00 25.2 19 Este 45 Este 0 -- -- 78
2019-09-15 09:00:00 23.8 22 Este 42 Sudeste 0 -- -- 86
2019-09-15 08:00:00 23.6 29 Este 44 Este 0 -- -- 86
2019-09-15 07:00:00 23.3 22 Sudeste 42 Este 0 -- -- 85
2019-09-15 06:00:00 23.3 24 Este 50 Este 0 -- -- 83
2019-09-15 05:00:00 23.1 21 Este 33 Este 0 -- -- 86
2019-09-15 04:00:00 23.1 13 Nordeste 39 Este 0 -- -- 86
2019-09-15 03:00:00 23.1 14 Este 32 Nordeste 0 -- -- 85
2019-09-15 02:00:00 23.2 22 Este 36 Sudeste 0 -- -- 83
2019-09-15 01:00:00 23.2 11 Este 26 Este 0 -- -- 81
2019-09-15 00:00:00 23.3 14 Sudeste 44 Este 0 -- -- 84